Time;durP1;ratioP1;P1;durP2;ratioP2;P2;SDS_P1;SDS_P2;PMS_P1;PMS_P2;Temp;Humidity;BMP_temperature;BMP_pressure;BME280_temperature;BME280_humidity;BME280_pressure;Samples;Min_cycle;Max_cycle;Signal;HPM_P1;HPM_P2
2022/11/16 00:01:31;;;;;;;102.57;55.03;;;9.50;99.90;;;;;;4943369;29;20106;-91
2022/11/16 00:04:00;;;;;;;106.78;56.30;;;9.50;99.90;;;;;;4944674;29;20038;-92
2022/11/16 00:06:27;;;;;;;100.22;55.60;;;9.40;99.90;;;;;;4924470;29;20032;-90
2022/11/16 00:11:43;;;;;;;100.65;55.22;;;9.40;99.90;;;;;;4958588;29;20156;-92
2022/11/16 00:14:09;;;;;;;106.00;57.03;;;9.50;99.90;;;;;;4941838;29;20050;-92
2022/11/16 00:16:35;;;;;;;116.30;59.85;;;9.50;99.90;;;;;;4945008;29;20019;-92
2022/11/16 00:19:05;;;;;;;111.65;60.50;;;9.50;99.90;;;;;;4946090;29;20038;-87
2022/11/16 00:21:31;;;;;;;113.80;59.42;;;9.50;99.90;;;;;;4948710;29;20015;-88
2022/11/16 00:23:57;;;;;;;113.80;60.70;;;9.40;99.90;;;;;;4943306;29;20031;-90
2022/11/16 00:26:23;;;;;;;114.95;59.35;;;9.50;99.90;;;;;;4942958;29;20027;-94
2022/11/16 00:28:51;;;;;;;117.15;61.67;;;9.40;99.90;;;;;;4941419;29;20050;-90
2022/11/16 00:31:17;;;;;;;115.82;61.65;;;9.40;99.90;;;;;;4941776;29;20023;-90
2022/11/16 00:33:44;;;;;;;112.65;60.22;;;9.40;99.90;;;;;;4944956;29;20106;-92
2022/11/16 00:36:11;;;;;;;112.28;60.35;;;9.40;99.90;;;;;;4924280;29;20039;-92
2022/11/16 00:38:37;;;;;;;111.03;59.85;;;9.40;99.90;;;;;;4942404;29;20031;-96
2022/11/16 00:41:03;;;;;;;115.72;60.40;;;9.40;99.90;;;;;;4956133;28;20042;-95
2022/11/16 00:43:29;;;;;;;117.50;62.78;;;9.40;99.90;;;;;;4977122;28;20027;-94
2022/11/16 00:45:55;;;;;;;112.65;61.67;;;9.50;99.90;;;;;;4960316;28;20034;-95
2022/11/16 00:48:20;;;;;;;138.65;70.47;;;9.50;99.90;;;;;;4975790;28;20023;-94
2022/11/16 00:50:49;;;;;;;134.25;74.25;;;9.40;99.90;;;;;;4975852;28;20026;-95
2022/11/16 00:53:17;;;;;;;151.20;79.28;;;9.30;99.90;;;;;;4974425;28;20019;-94
2022/11/16 00:55:48;;;;;;;146.13;80.10;;;9.30;99.90;;;;;;4966971;28;20027;-92
2022/11/16 00:58:18;;;;;;;152.40;83.68;;;9.20;99.90;;;;;;4963068;28;20054;-93
2022/11/16 01:00:44;;;;;;;151.93;83.43;;;9.20;99.90;;;;;;4963014;28;20054;-92
2022/11/16 01:03:10;;;;;;;151.75;82.30;;;9.30;99.90;;;;;;4962467;28;20023;-94
2022/11/16 01:05:36;;;;;;;145.68;82.10;;;9.20;99.90;;;;;;5000669;23;20061;-53
2022/11/16 01:08:05;;;;;;;162.15;86.65;;;9.30;99.90;;;;;;4991705;28;20506;-55
2022/11/16 01:10:31;;;;;;;166.70;81.85;;;9.20;99.90;;;;;;4989536;28;20057;-52
2022/11/16 01:12:57;;;;;;;159.15;84.85;;;9.20;99.90;;;;;;4992316;28;20489;-53
2022/11/16 01:15:25;;;;;;;152.32;82.15;;;9.10;99.90;;;;;;4975542;28;20031;-54
2022/11/16 01:17:52;;;;;;;150.35;79.38;;;9.20;99.90;;;;;;4992809;28;20034;-53
2022/11/16 01:20:21;;;;;;;151.23;82.45;;;9.20;99.90;;;;;;4992903;28;20382;-53
2022/11/16 01:22:47;;;;;;;135.90;78.03;;;9.20;99.90;;;;;;4993196;28;20477;-55
2022/11/16 01:25:13;;;;;;;148.70;81.07;;;9.20;99.90;;;;;;4993120;28;20037;-54
2022/11/16 01:27:40;;;;;;;145.82;83.97;;;9.20;99.90;;;;;;4992435;28;20034;-52
2022/11/16 01:30:08;;;;;;;144.02;80.57;;;9.20;99.90;;;;;;4992650;28;20027;-55
2022/11/16 01:32:34;;;;;;;143.48;78.68;;;9.20;99.90;;;;;;4992550;28;20054;-52
2022/11/16 01:35:00;;;;;;;146.95;79.45;;;9.20;99.90;;;;;;4992899;28;20030;-53
2022/11/16 01:37:26;;;;;;;146.38;79.82;;;9.10;99.90;;;;;;4992800;28;20042;-55
2022/11/16 01:39:52;;;;;;;150.05;82.10;;;9.20;99.90;;;;;;4992438;28;20027;-53
2022/11/16 01:42:21;;;;;;;143.48;77.95;;;9.20;99.90;;;;;;4992454;28;20536;-52
2022/11/16 01:44:46;;;;;;;144.13;78.85;;;9.10;99.90;;;;;;4975019;28;20045;-55
2022/11/16 01:47:14;;;;;;;136.20;77.13;;;9.10;99.90;;;;;;4992500;28;20019;-53
2022/11/16 01:49:44;;;;;;;138.98;75.65;;;9.10;99.90;;;;;;4992342;28;20050;-55
2022/11/16 01:52:15;;;;;;;140.82;75.07;;;9.10;99.90;;;;;;4992332;28;20026;-55
2022/11/16 01:54:44;;;;;;;144.80;76.03;;;9.10;99.90;;;;;;4992311;28;20030;-51
2022/11/16 01:57:15;;;;;;;150.32;80.15;;;9.00;99.90;;;;;;4992146;28;20027;-54
2022/11/16 01:59:42;;;;;;;146.73;79.53;;;9.00;99.90;;;;;;4992638;28;20049;-54
2022/11/16 02:02:08;;;;;;;142.70;78.05;;;9.00;99.90;;;;;;4992251;28;20106;-55
2022/11/16 02:04:34;;;;;;;141.63;78.13;;;8.90;99.90;;;;;;4992607;28;20046;-54
2022/11/16 02:07:27;;;;;;;147.75;80.35;;;8.90;99.90;;;;;;4979131;28;20375;-52
2022/11/16 02:10:11;;;;;;;140.63;80.35;;;8.90;99.90;;;;;;4955048;28;20022;-55
2022/11/16 02:13:11;;;;;;;141.30;77.57;;;8.90;99.90;;;;;;4972527;28;20046;-52
2022/11/16 02:16:14;;;;;;;150.00;80.03;;;8.90;99.90;;;;;;4919732;28;20200;-55
2022/11/16 02:18:53;;;;;;;158.65;83.00;;;8.80;99.90;;;;;;4972536;28;20621;-51
2022/11/16 02:21:27;;;;;;;146.05;84.57;;;8.80;99.90;;;;;;4972771;28;20041;-53
2022/11/16 02:24:44;;;;;;;161.63;85.65;;;8.80;99.90;;;;;;4972147;28;20548;-53
2022/11/16 02:27:16;;;;;;;157.88;83.18;;;8.80;99.90;;;;;;4939152;28;20117;-52
2022/11/16 02:29:50;;;;;;;153.43;88.85;;;8.80;99.90;;;;;;4972607;28;20027;-54
2022/11/16 02:32:33;;;;;;;152.35;86.95;;;8.90;99.90;;;;;;4972118;28;20054;-55
2022/11/16 02:35:08;;;;;;;154.57;85.57;;;8.90;99.90;;;;;;4972499;28;20038;-53
2022/11/16 02:37:38;;;;;;;158.93;89.00;;;8.90;99.90;;;;;;4970776;28;20027;-56
2022/11/16 02:40:08;;;;;;;153.48;86.65;;;8.90;99.90;;;;;;4972183;28;20078;-56
2022/11/16 02:42:39;;;;;;;152.98;85.95;;;8.90;99.90;;;;;;4972194;28;20039;-51
2022/11/16 02:45:07;;;;;;;157.27;87.53;;;8.90;99.90;;;;;;4972005;28;20497;-53
2022/11/16 02:47:34;;;;;;;164.82;87.97;;;8.80;99.90;;;;;;4972279;28;20082;-52
2022/11/16 02:50:08;;;;;;;152.00;88.97;;;8.80;99.90;;;;;;4972172;28;20034;-53
2022/11/16 02:52:35;;;;;;;160.80;88.20;;;8.80;99.90;;;;;;4972271;28;20035;-54
2022/11/16 02:55:01;;;;;;;157.43;84.60;;;8.80;99.90;;;;;;4971992;28;20426;-54
2022/11/16 02:57:26;;;;;;;158.55;87.18;;;8.80;99.90;;;;;;4971765;28;20062;-54
2022/11/16 02:59:56;;;;;;;158.68;85.80;;;8.80;99.90;;;;;;4971536;28;20023;-54
2022/11/16 03:02:53;;;;;;;155.85;85.72;;;8.70;99.90;;;;;;4971653;28;20041;-54
2022/11/16 03:05:34;;;;;;;147.40;79.28;;;8.70;99.90;;;;;;4971731;28;20427;-53
2022/11/16 03:08:06;;;;;;;142.13;76.40;;;8.60;99.90;;;;;;4971471;28;20125;-54
2022/11/16 03:13:22;;;;;;;126.47;72.15;;;8.60;99.90;;;;;;4971490;28;20102;-52
2022/11/16 03:15:49;;;;;;;129.73;72.25;;;8.60;99.90;;;;;;4971702;28;20541;-51
2022/11/16 03:18:16;;;;;;;129.82;70.38;;;8.60;99.90;;;;;;4971504;28;20114;-54
2022/11/16 03:20:43;;;;;;;133.33;72.17;;;8.60;99.90;;;;;;4971933;28;20113;-50
2022/11/16 03:23:11;;;;;;;131.85;70.85;;;8.70;99.90;;;;;;4954027;28;21009;-54
2022/11/16 03:25:44;;;;;;;126.93;71.75;;;8.70;99.90;;;;;;4971331;28;20542;-52
2022/11/16 03:28:14;;;;;;;127.82;68.15;;;8.60;99.90;;;;;;4970532;28;20026;-51
2022/11/16 03:30:48;;;;;;;125.00;64.03;;;8.70;99.90;;;;;;4971444;28;20027;-52
2022/11/16 03:33:48;;;;;;;112.97;61.47;;;8.60;99.90;;;;;;4971142;28;20110;-50
2022/11/16 03:36:32;;;;;;;103.97;58.30;;;8.70;99.90;;;;;;4950058;28;20042;-53
2022/11/16 03:39:14;;;;;;;109.05;58.20;;;8.70;99.90;;;;;;4971295;28;20391;-53
2022/11/16 03:41:42;;;;;;;104.22;56.67;;;8.70;99.90;;;;;;4971095;28;20026;-53
2022/11/16 03:44:11;;;;;;;97.32;53.42;;;8.70;99.90;;;;;;4970942;28;20039;-55
2022/11/16 03:46:37;;;;;;;102.85;53.80;;;8.70;99.90;;;;;;4970869;28;20109;-52
2022/11/16 03:49:04;;;;;;;102.40;52.08;;;8.60;99.90;;;;;;4970960;28;20679;-54
2022/11/16 03:51:30;;;;;;;105.82;54.00;;;8.60;99.90;;;;;;4971092;28;20030;-52
2022/11/16 03:53:56;;;;;;;106.28;53.25;;;8.60;99.90;;;;;;4970774;28;20479;-52
2022/11/16 03:56:21;;;;;;;94.22;50.05;;;8.60;99.90;;;;;;4970987;28;20023;-54
2022/11/16 03:58:47;;;;;;;103.03;52.95;;;8.60;99.90;;;;;;4970654;28;20023;-54
2022/11/16 04:01:13;;;;;;;107.05;55.55;;;8.60;99.90;;;;;;4970963;28;20035;-54
2022/11/16 04:03:38;;;;;;;117.05;57.65;;;8.60;99.90;;;;;;4971043;28;20533;-54
2022/11/16 04:25:38;;;;;;;110.18;50.58;;;8.60;99.90;;;;;;4970797;28;20073;-55
2022/11/16 04:28:15;;;;;;;97.90;50.25;;;8.60;99.90;;;;;;4970442;28;20027;-55
2022/11/16 04:39:07;;;;;;;92.22;47.25;;;8.60;99.90;;;;;;4956466;28;20046;-54
2022/11/16 04:44:18;;;;;;;87.68;45.05;;;8.60;99.90;;;;;;4974371;28;20034;-53
2022/11/16 04:49:28;;;;;;;90.70;47.30;;;8.60;99.90;;;;;;4974205;28;20041;-53
2022/11/16 04:51:54;;;;;;;88.50;45.10;;;8.60;99.90;;;;;;4974215;28;20027;-53
2022/11/16 04:54:20;;;;;;;86.32;46.13;;;8.50;99.90;;;;;;4974277;28;20041;-52
2022/11/16 04:56:46;;;;;;;86.35;44.70;;;8.50;99.90;;;;;;4974076;28;20613;-51
2022/11/16 04:59:11;;;;;;;85.82;45.97;;;8.50;99.90;;;;;;4972355;28;20049;-53
2022/11/16 05:04:42;;;;;;;86.53;45.28;;;8.40;99.90;;;;;;4895180;29;20123;-51
2022/11/16 05:07:11;;;;;;;92.25;47.85;;;8.40;99.90;;;;;;4907152;29;20086;-53
2022/11/16 05:09:41;;;;;;;87.40;43.55;;;8.40;99.90;;;;;;4952519;28;20133;-54
2022/11/16 05:12:09;;;;;;;85.75;44.80;;;8.40;99.90;;;;;;4993071;28;20466;-53
2022/11/16 05:14:35;;;;;;;82.45;43.35;;;8.50;99.90;;;;;;4993018;28;20034;-51
2022/11/16 05:17:00;;;;;;;89.72;43.75;;;8.40;99.90;;;;;;4993285;28;20038;-52
2022/11/16 05:22:10;;;;;;;81.40;41.55;;;8.50;99.90;;;;;;4993292;28;20085;-53
2022/11/16 05:24:36;;;;;;;84.47;41.05;;;8.40;99.90;;;;;;4975705;28;20026;-52
2022/11/16 05:27:07;;;;;;;82.32;41.90;;;8.40;99.90;;;;;;4993073;28;20026;-50
2022/11/16 05:29:33;;;;;;;80.00;41.33;;;8.40;99.90;;;;;;4993023;28;20026;-52
2022/11/16 05:32:00;;;;;;;81.75;39.50;;;8.50;99.90;;;;;;4992853;28;20334;-53
2022/11/16 05:34:26;;;;;;;79.40;39.58;;;8.40;99.90;;;;;;4992977;28;20030;-54
2022/11/16 05:36:52;;;;;;;78.45;40.83;;;8.50;99.90;;;;;;4993084;28;20031;-53
2022/11/16 05:39:18;;;;;;;76.18;39.03;;;8.50;99.90;;;;;;4992654;28;20038;-53
2022/11/16 05:41:44;;;;;;;78.07;40.58;;;8.50;99.90;;;;;;4992743;28;20029;-53
2022/11/16 05:44:10;;;;;;;76.70;40.30;;;8.50;99.90;;;;;;4992513;28;20034;-52
2022/11/16 05:46:36;;;;;;;71.60;39.60;;;8.50;99.90;;;;;;4992478;28;20054;-54
2022/11/16 05:49:02;;;;;;;72.85;39.90;;;8.50;99.90;;;;;;4992514;28;20534;-52
2022/11/16 05:51:28;;;;;;;78.18;39.38;;;8.50;99.90;;;;;;4991786;28;20049;-53
2022/11/16 05:53:54;;;;;;;79.95;42.83;;;8.50;99.90;;;;;;4980886;28;20494;-53
2022/11/16 05:56:19;;;;;;;80.60;41.53;;;8.50;99.90;;;;;;4980522;28;20039;-53
2022/11/16 05:58:45;;;;;;;76.55;40.25;;;8.50;99.90;;;;;;4981740;28;20018;-52
2022/11/16 06:01:11;;;;;;;75.70;39.72;;;8.50;99.90;;;;;;4981776;28;20473;-53
2022/11/16 06:03:37;;;;;;;77.15;40.83;;;8.50;99.90;;;;;;4979956;28;20023;-53
2022/11/16 06:06:04;;;;;;;75.35;39.75;;;8.40;99.90;;;;;;4980874;28;20037;-52
2022/11/16 06:08:30;;;;;;;78.63;39.33;;;8.40;99.90;;;;;;4991112;28;20062;-53
2022/11/16 06:10:55;;;;;;;75.80;39.25;;;8.50;99.90;;;;;;4991130;28;20140;-54
2022/11/16 06:13:21;;;;;;;80.00;40.20;;;8.40;99.90;;;;;;4990776;28;20462;-55
2022/11/16 06:15:46;;;;;;;82.65;41.33;;;8.40;99.90;;;;;;4985273;28;20560;-54
2022/11/16 06:18:12;;;;;;;83.68;40.20;;;8.40;99.90;;;;;;4992014;28;20138;-54
2022/11/16 06:20:39;;;;;;;84.45;41.60;;;8.40;99.90;;;;;;4987269;28;20029;-53
2022/11/16 06:23:05;;;;;;;82.15;42.53;;;8.50;99.90;;;;;;4982402;28;20406;-53
2022/11/16 06:25:31;;;;;;;87.07;40.78;;;8.50;99.90;;;;;;4982115;28;20030;-51
2022/11/16 06:27:58;;;;;;;89.20;42.88;;;8.50;99.90;;;;;;4980729;28;20031;-52
2022/11/16 06:30:24;;;;;;;77.40;38.63;;;8.50;99.90;;;;;;4981527;28;20493;-53
2022/11/16 06:32:50;;;;;;;82.47;39.63;;;8.50;99.90;;;;;;4985177;28;20511;-52
2022/11/16 06:35:16;;;;;;;82.10;39.85;;;8.50;99.90;;;;;;4991658;28;20037;-51
2022/11/16 06:37:42;;;;;;;78.43;38.85;;;8.50;99.90;;;;;;4987242;28;20122;-52
2022/11/16 06:40:09;;;;;;;82.15;39.05;;;8.50;99.90;;;;;;4987688;28;20026;-53
2022/11/16 06:42:34;;;;;;;75.15;37.03;;;8.50;99.90;;;;;;4986603;28;20497;-53
2022/11/16 06:45:00;;;;;;;73.88;37.05;;;8.50;99.90;;;;;;4990173;28;20113;-51
2022/11/16 06:47:26;;;;;;;78.18;37.30;;;8.60;99.90;;;;;;4986120;28;20027;-51
2022/11/16 06:49:51;;;;;;;75.45;39.10;;;8.50;99.90;;;;;;4981206;28;20671;-52
2022/11/16 06:52:17;;;;;;;82.38;36.85;;;8.60;99.90;;;;;;4991226;28;20529;-52
2022/11/16 06:54:42;;;;;;;72.47;35.08;;;8.60;99.90;;;;;;4991491;28;20035;-52
2022/11/16 06:57:08;;;;;;;73.43;36.25;;;8.50;99.90;;;;;;4991597;28;20018;-54
2022/11/16 06:59:34;;;;;;;66.00;36.00;;;8.50;99.90;;;;;;4991349;28;20084;-54
2022/11/16 07:01:59;;;;;;;69.97;34.95;;;8.50;99.90;;;;;;4990942;28;20022;-54
2022/11/16 07:04:25;;;;;;;70.97;36.30;;;8.50;99.90;;;;;;4990871;28;20122;-54
2022/11/16 07:06:51;;;;;;;66.30;35.80;;;8.50;99.90;;;;;;4982179;28;20043;-53
2022/11/16 07:09:17;;;;;;;62.63;33.55;;;8.60;99.90;;;;;;4981493;28;20105;-54
2022/11/16 07:11:43;;;;;;;62.53;34.22;;;8.60;99.90;;;;;;4953443;28;20030;-53
2022/11/16 07:14:08;;;;;;;61.83;32.70;;;8.60;99.90;;;;;;4969520;28;20106;-53
2022/11/16 07:16:35;;;;;;;63.13;35.00;;;8.60;99.90;;;;;;4983448;28;20497;-54
2022/11/16 07:19:04;;;;;;;68.47;34.03;;;8.60;99.90;;;;;;4989728;28;20061;-55
2022/11/16 07:21:29;;;;;;;68.15;35.20;;;8.50;99.90;;;;;;4985839;28;20424;-52
2022/11/16 07:23:56;;;;;;;88.63;43.85;;;8.60;99.90;;;;;;4978060;28;20031;-52
2022/11/16 07:26:22;;;;;;;100.43;48.83;;;8.60;99.90;;;;;;4979675;28;20018;-56
2022/11/16 07:28:48;;;;;;;114.75;56.08;;;8.60;99.90;;;;;;4978328;28;20027;-52
2022/11/16 07:31:14;;;;;;;122.22;57.88;;;8.60;99.90;;;;;;4978725;28;20033;-54
2022/11/16 07:33:43;;;;;;;74.05;39.45;;;8.50;99.90;;;;;;4980598;28;20038;-52
2022/11/16 07:36:11;;;;;;;75.25;38.75;;;8.50;99.90;;;;;;4979407;28;20141;-55
2022/11/16 07:38:37;;;;;;;65.20;36.25;;;8.50;99.90;;;;;;4979418;28;20030;-52
2022/11/16 07:41:05;;;;;;;61.22;32.33;;;8.50;99.90;;;;;;4981170;28;20085;-54
2022/11/16 07:43:34;;;;;;;69.53;36.22;;;8.50;99.90;;;;;;4980102;28;20031;-52
2022/11/16 07:46:04;;;;;;;79.15;42.28;;;8.50;99.90;;;;;;4978811;28;20030;-54
2022/11/16 07:48:34;;;;;;;73.30;39.58;;;8.50;99.90;;;;;;4980159;28;20165;-52
2022/11/16 07:51:09;;;;;;;66.88;36.40;;;8.50;99.90;;;;;;4978399;28;20654;-53
2022/11/16 07:53:35;;;;;;;70.50;37.30;;;8.40;99.90;;;;;;4980794;28;20038;-53
2022/11/16 07:56:01;;;;;;;76.80;38.30;;;8.50;99.90;;;;;;4960739;28;20018;-52
2022/11/16 07:58:29;;;;;;;69.10;36.85;;;8.40;99.90;;;;;;4980969;28;20042;-52
2022/11/16 08:01:04;;;;;;;63.55;36.08;;;8.40;99.90;;;;;;4980162;28;20029;-51
2022/11/16 08:03:31;;;;;;;61.42;32.90;;;8.40;99.90;;;;;;4961741;28;20038;-53
2022/11/16 08:06:03;;;;;;;64.93;35.42;;;8.40;99.90;;;;;;4979737;28;20121;-54
2022/11/16 08:08:28;;;;;;;73.53;36.42;;;8.30;99.90;;;;;;4980971;28;20034;-53
2022/11/16 08:11:08;;;;;;;71.05;37.15;;;8.30;99.90;;;;;;4979615;28;20030;-55
2022/11/16 08:13:36;;;;;;;77.07;39.92;;;8.40;99.90;;;;;;4980508;28;20180;-54
2022/11/16 08:16:08;;;;;;;73.53;39.42;;;8.40;99.90;;;;;;4985167;28;20018;-51
2022/11/16 08:18:35;;;;;;;77.55;39.95;;;8.40;99.90;;;;;;4985251;28;20035;-51
2022/11/16 08:21:02;;;;;;;73.10;36.80;;;8.40;99.90;;;;;;4983663;28;20022;-52
2022/11/16 08:23:29;;;;;;;69.88;36.55;;;8.30;99.90;;;;;;4983941;28;20030;-55
2022/11/16 08:25:59;;;;;;;76.37;37.97;;;8.40;99.90;;;;;;4982945;28;20069;-52
2022/11/16 08:28:26;;;;;;;69.00;35.85;;;8.40;99.90;;;;;;4983182;28;20282;-52
2022/11/16 08:30:55;;;;;;;80.57;39.85;;;8.40;99.90;;;;;;4981198;28;20030;-53
2022/11/16 08:33:23;;;;;;;70.68;35.03;;;8.50;99.90;;;;;;4979586;28;20042;-54
2022/11/16 08:35:56;;;;;;;74.32;36.83;;;8.40;99.90;;;;;;4986004;28;20035;-55
2022/11/16 08:38:21;;;;;;;78.50;36.85;;;8.40;99.90;;;;;;4986128;28;20397;-54
2022/11/16 08:40:50;;;;;;;82.97;40.00;;;8.30;99.90;;;;;;4986974;28;20034;-52
2022/11/16 08:43:16;;;;;;;92.20;42.90;;;8.30;99.90;;;;;;4983447;28;20426;-55
2022/11/16 08:45:47;;;;;;;106.00;47.20;;;8.30;99.90;;;;;;4986018;28;20049;-54
2022/11/16 08:48:13;;;;;;;107.60;45.00;;;8.30;99.90;;;;;;4988554;28;20130;-55
2022/11/16 08:50:39;;;;;;;104.90;45.90;;;8.30;99.90;;;;;;4988021;28;20112;-55
2022/11/16 08:53:06;;;;;;;114.13;46.10;;;8.40;99.90;;;;;;4985862;28;20041;-53
2022/11/16 08:55:32;;;;;;;106.75;46.40;;;8.30;99.90;;;;;;4981933;28;20034;-53
2022/11/16 08:57:58;;;;;;;113.40;49.40;;;8.20;99.90;;;;;;4977675;28;20030;-58
2022/11/16 09:00:24;;;;;;;115.35;50.05;;;8.20;99.90;;;;;;4982830;28;20060;-55
2022/11/16 09:02:50;;;;;;;115.47;50.92;;;8.20;99.90;;;;;;4979703;28;20474;-55
2022/11/16 09:05:15;;;;;;;128.13;53.10;;;8.30;99.90;;;;;;4983806;28;20113;-53
2022/11/16 09:07:43;;;;;;;132.32;55.88;;;8.20;99.90;;;;;;4981808;28;20038;-52
2022/11/16 09:10:09;;;;;;;;;;;8.20;99.90;;;;;;4983038;28;20034;-51
2022/11/16 09:12:38;;;;;;;139.57;60.35;;;8.30;99.90;;;;;;4983774;28;19925;-54
2022/11/16 09:15:05;;;;;;;136.48;62.80;;;8.30;99.90;;;;;;4982169;28;20441;-54
2022/11/16 09:17:31;;;;;;;148.32;62.83;;;8.20;99.90;;;;;;4981843;28;20030;-55
2022/11/16 09:19:57;;;;;;;150.68;63.95;;;8.20;99.90;;;;;;4965989;28;20477;-53
2022/11/16 09:22:23;;;;;;;144.27;61.72;;;8.20;99.90;;;;;;4964713;28;20057;-53
2022/11/16 09:24:48;;;;;;;139.10;62.92;;;8.20;99.90;;;;;;4963323;28;20074;-55
2022/11/16 09:27:15;;;;;;;138.23;61.92;;;8.20;99.90;;;;;;4982581;28;20078;-54
2022/11/16 09:29:41;;;;;;;146.80;65.43;;;8.20;99.90;;;;;;4993421;28;20034;-52
2022/11/16 09:32:06;;;;;;;147.88;65.30;;;8.30;99.90;;;;;;4992746;28;20274;-51
2022/11/16 09:34:35;;;;;;;150.25;62.40;;;8.30;99.90;;;;;;4993148;28;20034;-52
2022/11/16 09:37:01;;;;;;;126.80;58.65;;;8.30;99.90;;;;;;4993150;28;20025;-54
2022/11/16 09:39:30;;;;;;;136.38;58.88;;;8.30;99.90;;;;;;4992808;28;20027;-54
2022/11/16 09:42:06;;;;;;;132.88;57.95;;;8.20;99.90;;;;;;4993081;28;20034;-54
2022/11/16 09:44:55;;;;;;;134.63;56.17;;;8.20;99.90;;;;;;4992766;28;20025;-54
2022/11/16 09:47:33;;;;;;;124.43;54.20;;;8.20;99.90;;;;;;4993079;28;20030;-56
2022/11/16 09:50:01;;;;;;;133.50;60.03;;;8.20;99.90;;;;;;4990239;28;20034;-51
2022/11/16 09:52:35;;;;;;;117.57;53.72;;;8.20;99.90;;;;;;4973851;28;20050;-56
2022/11/16 09:55:18;;;;;;;125.40;54.25;;;8.30;99.90;;;;;;4991029;28;20057;-53
2022/11/16 09:57:46;;;;;;;126.93;55.97;;;8.30;99.90;;;;;;4990793;28;20026;-51
2022/11/16 10:00:16;;;;;;;124.85;57.30;;;8.30;99.90;;;;;;4991726;28;20077;-55
2022/11/16 10:02:56;;;;;;;131.98;57.20;;;8.30;99.90;;;;;;4991647;28;20102;-53
2022/11/16 10:05:31;;;;;;;124.10;56.95;;;8.30;99.90;;;;;;4991291;28;20117;-54
2022/11/16 10:08:32;;;;;;;131.65;57.55;;;8.40;99.90;;;;;;4992283;28;20061;-55
2022/11/16 10:11:10;;;;;;;130.10;56.75;;;8.40;99.90;;;;;;4992472;28;20114;-53
2022/11/16 10:13:42;;;;;;;137.80;56.08;;;8.40;99.90;;;;;;4974605;28;20031;-55
2022/11/16 10:16:39;;;;;;;130.25;54.63;;;8.30;99.90;;;;;;4992077;28;20437;-54
2022/11/16 10:19:38;;;;;;;126.25;56.45;;;8.30;99.90;;;;;;4992147;28;20193;-52
2022/11/16 10:22:18;;;;;;;137.48;57.28;;;8.40;99.90;;;;;;4983899;28;20035;-54
2022/11/16 10:25:06;;;;;;;133.07;56.88;;;8.40;99.90;;;;;;4973210;28;20045;-52
2022/11/16 10:28:02;;;;;;;129.82;53.47;;;8.40;99.90;;;;;;4972420;28;20542;-54
2022/11/16 10:30:30;;;;;;;134.27;54.92;;;8.40;99.90;;;;;;4972736;28;20031;-55
2022/11/16 10:33:33;;;;;;;138.57;58.08;;;8.30;99.90;;;;;;4972176;28;20121;-51
2022/11/16 10:36:03;;;;;;;144.40;55.72;;;8.40;99.90;;;;;;4963001;28;20066;-53
2022/11/16 10:38:29;;;;;;;134.88;60.33;;;8.40;99.90;;;;;;4971675;28;20114;-54
2022/11/16 10:41:01;;;;;;;127.50;59.63;;;8.40;99.90;;;;;;4972415;28;20069;-53
2022/11/16 10:43:30;;;;;;;134.30;58.65;;;8.50;99.90;;;;;;4972488;28;20075;-51
2022/11/16 10:46:37;;;;;;;144.18;61.53;;;8.50;99.90;;;;;;4987493;28;20030;-52
2022/11/16 10:49:15;;;;;;;143.38;60.40;;;8.50;99.90;;;;;;4912081;29;20080;-55
2022/11/16 10:51:42;;;;;;;140.10;60.67;;;8.50;99.90;;;;;;4981732;28;20085;-52
2022/11/16 10:54:15;;;;;;;150.50;62.85;;;8.50;99.90;;;;;;4991398;28;20130;-52
2022/11/16 10:56:44;;;;;;;156.13;62.03;;;8.50;99.90;;;;;;4991612;28;20363;-51
2022/11/16 10:59:18;;;;;;;169.45;64.78;;;8.50;99.90;;;;;;4991360;28;20068;-52
2022/11/16 11:01:48;;;;;;;151.80;61.67;;;8.50;99.90;;;;;;4991639;28;20037;-51
2022/11/16 11:04:31;;;;;;;166.55;66.80;;;8.50;99.90;;;;;;4991375;28;20545;-57
2022/11/16 11:07:20;;;;;;;168.20;65.05;;;8.50;99.90;;;;;;4991356;28;20077;-59
2022/11/16 11:09:50;;;;;;;;;;;8.50;99.90;;;;;;4991798;28;20034;-62
2022/11/16 11:12:38;;;;;;;181.10;67.40;;;8.40;99.90;;;;;;4991630;28;19920;-52
2022/11/16 11:15:10;;;;;;;190.13;67.82;;;8.40;99.90;;;;;;4991452;28;20129;-51
2022/11/16 11:17:39;;;;;;;201.48;74.72;;;8.40;99.90;;;;;;4983936;28;20058;-50
2022/11/16 11:20:15;;;;;;;213.82;73.88;;;8.50;99.90;;;;;;4978469;28;20045;-54
2022/11/16 11:22:52;;;;;;;207.30;73.53;;;8.40;99.90;;;;;;4982235;28;20034;-51
2022/11/16 11:25:31;;;;;;;245.32;84.00;;;8.40;99.90;;;;;;4989665;28;20046;-53
2022/11/16 11:28:18;;;;;;;249.77;90.75;;;8.40;99.90;;;;;;4990192;28;20030;-56
2022/11/16 11:30:55;;;;;;;295.08;93.78;;;8.40;99.90;;;;;;4987029;28;20081;-51
2022/11/16 11:33:22;;;;;;;266.85;91.88;;;8.30;99.90;;;;;;4990097;28;20034;-55
2022/11/16 11:36:00;;;;;;;;;;;8.40;99.90;;;;;;4990506;28;20037;-56
2022/11/16 11:38:25;;;;;;;241.98;86.80;;;8.30;99.90;;;;;;4990288;28;20385;-55
2022/11/16 11:41:04;;;;;;;244.38;91.68;;;8.30;99.90;;;;;;4972571;28;20065;-56
2022/11/16 11:43:32;;;;;;;246.10;88.60;;;8.30;99.90;;;;;;4990421;28;20026;-52
2022/11/16 11:46:15;;;;;;;242.45;89.30;;;8.30;99.90;;;;;;4990328;28;20126;-54
2022/11/16 11:48:58;;;;;;;225.88;82.93;;;8.30;99.90;;;;;;4989779;28;20086;-54
2022/11/16 11:51:35;;;;;;;232.25;83.30;;;8.30;99.90;;;;;;4989930;28;20030;-52
2022/11/16 11:54:03;;;;;;;226.00;83.75;;;8.30;99.90;;;;;;4990190;28;20046;-56
2022/11/16 11:56:32;;;;;;;204.65;79.10;;;8.30;99.90;;;;;;4989906;28;20026;-53
2022/11/16 11:58:59;;;;;;;196.88;73.00;;;8.30;99.90;;;;;;4989895;28;20117;-56
2022/11/16 12:01:43;;;;;;;188.65;73.15;;;8.20;99.90;;;;;;4989885;28;20074;-52
2022/11/16 12:04:27;;;;;;;166.27;67.00;;;8.30;99.90;;;;;;4989605;28;20025;-56
2022/11/16 12:07:15;;;;;;;142.45;60.38;;;8.20;99.90;;;;;;4989580;28;20042;-54
2022/11/16 12:10:09;;;;;;;116.22;51.45;;;8.20;99.90;;;;;;4986640;28;21075;-54
2022/11/16 12:13:04;;;;;;;103.75;48.83;;;8.20;99.90;;;;;;4976811;28;20038;-56
2022/11/16 12:15:51;;;;;;;113.55;47.22;;;8.10;99.90;;;;;;4977905;28;20035;-53
2022/11/16 12:18:44;;;;;;;98.03;48.22;;;8.10;99.90;;;;;;4979814;28;20041;-53
2022/11/16 12:21:16;;;;;;;101.43;47.42;;;8.00;99.90;;;;;;4974496;28;20037;-56
2022/11/16 12:23:53;;;;;;;89.18;45.35;;;8.00;99.90;;;;;;4979705;28;20041;-52
2022/11/16 12:26:25;;;;;;;91.88;43.30;;;8.00;99.90;;;;;;4963778;28;20035;-55
2022/11/16 12:29:25;;;;;;;89.40;45.05;;;8.00;99.90;;;;;;4970110;28;20026;-51
2022/11/16 12:31:56;;;;;;;91.68;43.05;;;8.00;99.90;;;;;;4966723;28;20507;-51
2022/11/16 12:34:38;;;;;;;80.93;39.13;;;7.90;99.90;;;;;;4970512;28;20042;-50
2022/11/16 12:37:06;;;;;;;79.32;40.05;;;7.90;99.90;;;;;;4976888;28;20694;-52
2022/11/16 12:40:10;;;;;;;74.95;38.42;;;7.90;99.90;;;;;;4979335;28;20022;-56
2022/11/16 12:42:48;;;;;;;74.32;38.40;;;7.80;99.90;;;;;;4980196;28;20524;-55
2022/11/16 12:45:22;;;;;;;;;;;7.90;99.90;;;;;;4984075;28;20023;-53
2022/11/16 12:47:47;;;;;;;74.22;39.70;;;7.80;99.90;;;;;;4983281;28;19910;-52
2022/11/16 12:50:35;;;;;;;76.57;42.90;;;7.60;99.90;;;;;;4977268;28;20117;-53
2022/11/16 12:53:18;;;;;;;70.38;39.42;;;7.70;99.90;;;;;;4975779;28;20066;-53
2022/11/16 12:56:17;;;;;;;75.22;37.67;;;7.60;99.90;;;;;;4971328;28;20674;-54
2022/11/16 12:59:09;;;;;;;64.55;34.88;;;7.60;99.90;;;;;;4979489;28;20042;-53
2022/11/16 13:02:01;;;;;;;63.10;30.35;;;7.60;99.90;;;;;;4977273;28;20041;-53
2022/11/16 13:04:42;;;;;;;58.55;28.92;;;7.50;99.90;;;;;;4960278;28;20038;-52
2022/11/16 13:07:10;;;;;;;54.47;28.02;;;7.60;99.90;;;;;;4986148;28;20066;-55
2022/11/16 13:09:43;;;;;;;54.30;27.23;;;7.60;99.90;;;;;;4980889;28;20037;-56
2022/11/16 13:12:15;;;;;;;51.65;25.52;;;7.60;99.90;;;;;;4981094;28;20022;-53
2022/11/16 13:14:46;;;;;;;47.75;23.25;;;7.60;99.90;;;;;;4983480;28;20026;-52
2022/11/16 13:17:25;;;;;;;47.75;22.92;;;7.50;99.90;;;;;;4973829;28;20102;-56
2022/11/16 13:20:05;;;;;;;47.92;24.80;;;7.50;99.90;;;;;;4973841;28;20062;-54
2022/11/16 13:22:33;;;;;;;43.95;23.27;;;7.60;99.90;;;;;;4973756;28;20117;-53
2022/11/16 13:25:01;;;;;;;41.92;23.80;;;7.50;99.90;;;;;;4977194;28;20018;-53
2022/11/16 13:27:52;;;;;;;41.47;23.23;;;7.50;99.90;;;;;;4993085;28;20154;-55
2022/11/16 13:30:25;;;;;;;36.72;21.83;;;7.50;99.90;;;;;;4990882;28;20324;-56
2022/11/16 13:33:12;;;;;;;40.95;21.38;;;7.50;99.90;;;;;;4981702;28;20018;-54
2022/11/16 13:35:38;;;;;;;29.98;19.35;;;7.60;99.90;;;;;;4983058;28;20032;-55
2022/11/16 13:38:10;;;;;;;30.65;18.90;;;7.60;99.90;;;;;;4985604;28;20019;-55
2022/11/16 13:40:35;;;;;;;37.50;20.02;;;7.50;99.90;;;;;;4992407;28;20048;-55